createdAt,value
2022-09-22T00:01:27.354Z,3.10
2022-09-22T00:03:56.986Z,3.30
2022-09-22T00:09:00.930Z,3.97
2022-09-22T00:11:49.538Z,3.30
2022-09-22T00:14:23.281Z,3.05
2022-09-22T00:16:53.680Z,3.15
2022-09-22T00:19:23.524Z,4.22
2022-09-22T00:21:51.328Z,3.28
2022-09-22T00:24:19.876Z,3.30
2022-09-22T00:26:46.730Z,3.13
2022-09-22T00:29:13.818Z,2.65
2022-09-22T00:31:43.610Z,4.13
2022-09-22T00:34:22.762Z,3.55
2022-09-22T00:36:50.106Z,3.42
2022-09-22T00:39:18.083Z,3.40
2022-09-22T00:41:48.430Z,3.10
2022-09-22T00:44:29.941Z,3.00
2022-09-22T00:47:06.093Z,3.10
2022-09-22T00:50:16.061Z,3.38
2022-09-22T00:53:04.643Z,2.75
2022-09-22T00:55:40.623Z,2.85
2022-09-22T00:58:12.560Z,3.72
2022-09-22T01:00:39.720Z,2.83
2022-09-22T01:03:11.479Z,3.08
2022-09-22T01:05:40.350Z,2.97
2022-09-22T01:08:08.788Z,3.10
2022-09-22T01:10:35.754Z,3.08
2022-09-22T01:13:19.068Z,2.90
2022-09-22T01:15:54.670Z,3.33
2022-09-22T01:18:28.599Z,3.10
2022-09-22T01:21:16.068Z,4.28
2022-09-22T01:24:20.350Z,3.38
2022-09-22T01:27:13.069Z,3.67
2022-09-22T01:29:54.825Z,3.15
2022-09-22T01:32:32.404Z,3.50
2022-09-22T01:35:06.138Z,3.75
2022-09-22T01:37:54.358Z,4.07
2022-09-22T01:40:32.671Z,3.33
2022-09-22T01:43:16.875Z,4.20
2022-09-22T01:45:47.218Z,4.47
2022-09-22T01:48:27.818Z,4.20
2022-09-22T01:51:04.433Z,4.40
2022-09-22T01:53:39.739Z,4.22
2022-09-22T01:56:09.325Z,4.57
2022-09-22T01:58:42.158Z,4.32
2022-09-22T02:01:14.927Z,4.38
2022-09-22T02:03:50.774Z,4.35
2022-09-22T02:06:26.869Z,4.85
2022-09-22T02:08:59.928Z,4.97
2022-09-22T02:11:26.834Z,3.95
2022-09-22T02:13:54.171Z,4.28
2022-09-22T02:16:26.511Z,3.92
2022-09-22T02:19:12.421Z,4.10
2022-09-22T02:21:41.933Z,4.22
2022-09-22T02:24:26.897Z,3.92
2022-09-22T02:26:55.336Z,3.60
2022-09-22T02:29:23.116Z,3.72
2022-09-22T02:31:50.985Z,3.80
2022-09-22T02:34:18.847Z,3.15
2022-09-22T02:37:08.461Z,3.08
2022-09-22T02:39:49.829Z,4.00
2022-09-22T02:42:33.782Z,2.72
2022-09-22T02:45:13.334Z,3.13
2022-09-22T02:48:10.578Z,3.65
2022-09-22T02:50:38.229Z,2.83
2022-09-22T02:53:12.570Z,3.15
2022-09-22T02:55:39.596Z,3.65
2022-09-22T02:58:06.380Z,3.83
2022-09-22T03:00:33.374Z,3.40
2022-09-22T03:03:00.428Z,3.65
2022-09-22T03:05:27.228Z,4.28
2022-09-22T03:07:53.934Z,3.80
2022-09-22T03:10:20.826Z,5.18
2022-09-22T03:13:14.342Z,3.90
2022-09-22T03:15:34.564Z,4.63
2022-09-22T03:18:01.362Z,4.65
2022-09-22T03:20:28.153Z,3.95
2022-09-22T03:22:54.924Z,3.95
2022-09-22T03:25:21.656Z,4.88
2022-09-22T03:27:48.460Z,4.05
2022-09-22T03:30:15.201Z,4.32
2022-09-22T03:32:42.008Z,3.72
2022-09-22T03:35:09.432Z,3.83
2022-09-22T03:37:36.509Z,3.80
2022-09-22T03:40:04.526Z,3.75
2022-09-22T03:42:33.003Z,4.13
2022-09-22T03:44:59.951Z,4.35
2022-09-22T03:47:26.883Z,3.78
2022-09-22T03:49:53.638Z,3.67
2022-09-22T03:52:20.583Z,3.45
2022-09-22T03:54:47.342Z,3.25
2022-09-22T03:57:14.494Z,3.25
2022-09-22T03:59:41.456Z,3.25
2022-09-22T04:02:09.178Z,2.97
2022-09-22T04:04:36.214Z,2.88
2022-09-22T04:07:07.058Z,2.88
2022-09-22T04:09:34.889Z,3.50
2022-09-22T04:12:02.108Z,3.10
2022-09-22T04:14:29.017Z,3.15
2022-09-22T04:16:56.894Z,3.17
2022-09-22T04:19:23.884Z,3.42
2022-09-22T04:21:56.217Z,3.88
2022-09-22T04:24:24.604Z,4.05
2022-09-22T04:27:15.610Z,3.30
2022-09-22T04:29:38.687Z,3.58
2022-09-22T04:32:05.817Z,3.28
2022-09-22T04:34:32.792Z,4.32
2022-09-22T04:36:59.666Z,3.83
2022-09-22T04:39:28.670Z,4.28
2022-09-22T04:41:55.924Z,4.00
2022-09-22T04:44:23.614Z,5.45
2022-09-22T04:46:50.465Z,4.57
2022-09-22T04:49:18.439Z,4.05
2022-09-22T04:51:45.543Z,3.45
2022-09-22T04:54:14.120Z,3.30
2022-09-22T04:56:42.374Z,3.97
2022-09-22T04:59:09.383Z,4.70
2022-09-22T05:01:36.349Z,5.90
2022-09-22T05:04:03.424Z,6.28
2022-09-22T05:06:31.086Z,6.18
2022-09-22T05:08:58.645Z,5.35
2022-09-22T05:11:25.561Z,4.20
2022-09-22T05:13:52.444Z,3.72
2022-09-22T05:16:19.529Z,3.10
2022-09-22T05:18:46.529Z,3.55
2022-09-22T05:21:13.277Z,4.10
2022-09-22T05:23:40.052Z,4.35
2022-09-22T05:26:07.063Z,3.75
2022-09-22T05:28:34.016Z,3.28
2022-09-22T05:31:00.924Z,4.15
2022-09-22T05:33:27.801Z,3.72
2022-09-22T05:35:54.549Z,3.20
2022-09-22T05:38:21.457Z,4.07
2022-09-22T05:40:48.460Z,3.92
2022-09-22T05:43:15.988Z,3.83
2022-09-22T05:45:44.451Z,3.67
2022-09-22T05:48:11.283Z,3.90
2022-09-22T05:50:38.268Z,3.58
2022-09-22T05:53:07.117Z,8.73
2022-09-22T05:55:34.100Z,6.85
2022-09-22T05:58:01.288Z,4.78
2022-09-22T06:00:28.913Z,5.18
2022-09-22T06:02:55.840Z,3.15
2022-09-22T06:05:22.725Z,4.35
2022-09-22T06:07:59.132Z,4.65
2022-09-22T06:10:25.850Z,3.80
2022-09-22T06:12:58.693Z,4.28
2022-09-22T06:15:26.045Z,5.28
2022-09-22T06:17:53.261Z,5.18
2022-09-22T06:20:20.061Z,5.47
2022-09-22T06:22:46.810Z,4.22
2022-09-22T06:25:13.552Z,4.28
2022-09-22T06:27:40.338Z,4.55
2022-09-22T06:30:11.161Z,4.78
2022-09-22T06:32:43.816Z,5.13
2022-09-22T06:35:11.407Z,5.90
2022-09-22T06:37:40.790Z,6.20
2022-09-22T06:40:08.682Z,6.35
2022-09-22T06:42:36.211Z,5.63
2022-09-22T06:45:04.693Z,6.10
2022-09-22T06:47:32.992Z,7.10
2022-09-22T06:50:01.319Z,7.90
2022-09-22T06:52:28.984Z,9.73
2022-09-22T06:54:58.635Z,9.10
2022-09-22T06:57:28.005Z,11.50
2022-09-22T06:59:54.802Z,10.93
2022-09-22T07:02:28.220Z,13.93
2022-09-22T07:04:59.044Z,13.77
2022-09-22T07:07:28.041Z,13.82
2022-09-22T07:09:55.544Z,13.45
2022-09-22T07:12:22.613Z,13.48
2022-09-22T07:14:58.030Z,13.68
2022-09-22T07:17:26.524Z,13.80
2022-09-22T07:19:54.166Z,14.57
2022-09-22T07:22:20.884Z,12.80
2022-09-22T07:24:47.605Z,11.85
2022-09-22T07:27:14.733Z,10.65
2022-09-22T07:29:42.859Z,11.48
2022-09-22T07:32:10.885Z,11.57
2022-09-22T07:34:37.797Z,10.55
2022-09-22T07:37:04.611Z,10.07
2022-09-22T07:39:31.344Z,9.32
2022-09-22T07:41:58.041Z,9.70
2022-09-22T07:44:44.674Z,8.63
2022-09-22T07:47:37.848Z,8.60
2022-09-22T07:50:05.097Z,8.10
2022-09-22T07:52:31.889Z,8.63
2022-09-22T07:54:58.589Z,8.25
2022-09-22T07:57:25.397Z,8.20
2022-09-22T07:59:52.173Z,8.00
2022-09-22T08:02:18.972Z,7.10
2022-09-22T08:04:45.734Z,5.85
2022-09-22T08:07:15.107Z,6.13
2022-09-22T08:09:41.786Z,5.65
2022-09-22T08:12:10.089Z,4.63
2022-09-22T08:14:36.821Z,5.10
2022-09-22T08:17:03.630Z,4.47
2022-09-22T08:19:30.475Z,4.68
2022-09-22T08:21:57.719Z,4.50
2022-09-22T08:24:24.634Z,4.82
2022-09-22T08:26:53.244Z,4.90
2022-09-22T08:29:20.650Z,4.15
2022-09-22T08:31:49.260Z,3.70
2022-09-22T08:34:17.559Z,3.17
2022-09-22T08:36:46.196Z,3.33
2022-09-22T08:39:14.094Z,3.97
2022-09-22T08:41:48.317Z,3.20
2022-09-22T08:44:41.391Z,3.83
2022-09-22T08:47:40.359Z,3.22
2022-09-22T08:50:39.400Z,2.85
2022-09-22T08:53:12.456Z,2.33
2022-09-22T08:55:43.183Z,1.95
2022-09-22T08:58:28.704Z,1.92
2022-09-22T09:01:25.516Z,2.22
2022-09-22T09:04:16.727Z,2.53
2022-09-22T09:07:17.667Z,2.83
2022-09-22T09:09:57.920Z,1.70
2022-09-22T09:12:42.424Z,1.52
2022-09-22T09:15:25.900Z,1.20
2022-09-22T09:17:58.196Z,1.55
2022-09-22T09:20:40.025Z,1.60
2022-09-22T09:23:18.124Z,1.63
2022-09-22T09:25:49.806Z,1.40
2022-09-22T09:28:27.824Z,1.20
2022-09-22T09:31:05.188Z,1.10
2022-09-22T09:33:38.252Z,1.10
2022-09-22T09:36:11.453Z,1.05
2022-09-22T09:38:46.771Z,1.98
2022-09-22T09:41:18.262Z,1.50
2022-09-22T09:43:45.583Z,1.75
2022-09-22T09:46:37.158Z,1.98
2022-09-22T09:49:03.893Z,1.77
2022-09-22T09:51:39.586Z,1.63
2022-09-22T09:54:14.452Z,1.42
2022-09-22T09:57:05.460Z,1.60
2022-09-22T09:59:51.371Z,1.60
2022-09-22T10:05:18.967Z,1.35
2022-09-22T10:07:52.827Z,1.30
2022-09-22T10:10:33.326Z,1.35
2022-09-22T10:13:05.738Z,1.25
2022-09-22T10:15:38.005Z,1.33
2022-09-22T10:18:26.657Z,1.52
2022-09-22T10:21:04.291Z,1.20
2022-09-22T10:23:33.716Z,1.30
2022-09-22T10:26:17.604Z,0.85
2022-09-22T10:28:47.265Z,0.88
2022-09-22T10:31:27.633Z,0.80
2022-09-22T10:33:57.256Z,1.10
2022-09-22T10:36:26.163Z,1.55
2022-09-22T10:38:57.418Z,0.90
2022-09-22T10:41:34.239Z,1.08
2022-09-22T10:44:38.623Z,0.93
2022-09-22T10:47:06.608Z,0.90
2022-09-22T10:50:16.524Z,0.70
2022-09-22T10:52:54.776Z,1.30
2022-09-22T10:55:37.279Z,1.20
2022-09-22T10:58:09.860Z,1.10
2022-09-22T11:00:39.525Z,1.23
2022-09-22T11:03:44.053Z,1.20
2022-09-22T11:06:55.369Z,1.20
2022-09-22T11:10:12.417Z,0.90
2022-09-22T11:12:57.276Z,1.00
2022-09-22T11:15:32.842Z,1.13
2022-09-22T11:18:28.621Z,0.80
2022-09-22T11:21:07.102Z,0.85
2022-09-22T11:23:45.121Z,0.60
2022-09-22T11:26:14.908Z,0.82
2022-09-22T11:32:54.330Z,0.77
2022-09-22T11:35:41.109Z,0.75
2022-09-22T11:42:21.575Z,0.73
2022-09-22T11:45:23.356Z,0.63
2022-09-22T11:48:11.436Z,0.80
2022-09-22T11:50:56.417Z,0.70
2022-09-22T11:53:31.194Z,0.95
2022-09-22T11:56:16.751Z,0.73
2022-09-22T11:58:44.911Z,0.80
2022-09-22T12:01:17.675Z,0.63
2022-09-22T12:03:50.098Z,0.80
2022-09-22T12:06:34.338Z,0.77
2022-09-22T12:11:37.808Z,1.05
2022-09-22T12:14:06.467Z,1.08
2022-09-22T12:17:15.540Z,0.80
2022-09-22T12:20:02.689Z,1.00
2022-09-22T12:22:48.211Z,0.93
2022-09-22T12:25:25.853Z,1.23
2022-09-22T12:28:02.595Z,1.05
2022-09-22T12:30:31.850Z,1.33
2022-09-22T12:32:58.682Z,1.20
2022-09-22T12:35:31.311Z,0.90
2022-09-22T12:38:01.954Z,0.95
2022-09-22T12:40:41.517Z,1.00
2022-09-22T12:43:19.862Z,1.00
2022-09-22T12:45:47.431Z,0.98
2022-09-22T12:48:24.767Z,1.02
2022-09-22T12:50:52.307Z,1.00
2022-09-22T12:53:22.116Z,0.75
2022-09-22T12:55:50.142Z,1.00
2022-09-22T12:58:23.729Z,1.17
2022-09-22T13:00:56.165Z,1.10
2022-09-22T13:03:26.215Z,1.10
2022-09-22T13:06:02.309Z,0.98
2022-09-22T13:08:32.515Z,0.70
2022-09-22T13:11:03.343Z,1.15
2022-09-22T13:13:30.019Z,1.33
2022-09-22T13:16:05.111Z,0.80
2022-09-22T13:18:36.783Z,0.98
2022-09-22T13:21:12.534Z,0.57
2022-09-22T13:23:50.887Z,0.77
2022-09-22T13:26:19.715Z,0.93
2022-09-22T13:28:58.838Z,0.80
2022-09-22T13:31:26.489Z,0.60
2022-09-22T13:33:53.238Z,0.68
2022-09-22T13:36:23.458Z,0.80
2022-09-22T13:38:56.244Z,0.68
2022-09-22T13:41:41.024Z,0.90
2022-09-22T13:44:11.785Z,0.82
2022-09-22T13:46:44.534Z,0.45
2022-09-22T13:49:19.154Z,0.40
2022-09-22T13:51:54.994Z,0.77
2022-09-22T13:54:24.400Z,0.70
2022-09-22T13:56:51.203Z,0.50
2022-09-22T13:59:18.240Z,0.55
2022-09-22T14:01:53.304Z,0.70
2022-09-22T14:04:25.626Z,0.43
2022-09-22T14:06:55.970Z,0.60
2022-09-22T14:09:23.481Z,0.90
2022-09-22T14:11:50.359Z,0.60
2022-09-22T14:14:26.171Z,0.70
2022-09-22T14:16:58.276Z,0.73
2022-09-22T14:19:34.799Z,0.80
2022-09-22T14:22:04.413Z,0.60
2022-09-22T14:24:37.045Z,0.60
2022-09-22T14:27:07.665Z,1.02
2022-09-22T14:29:41.122Z,0.70
2022-09-22T14:32:26.493Z,0.73
2022-09-22T14:34:58.622Z,0.40
2022-09-22T14:37:31.809Z,0.80
2022-09-22T14:40:01.360Z,0.82
2022-09-22T14:42:30.821Z,0.73
2022-09-22T14:45:09.565Z,0.95
2022-09-22T14:47:41.302Z,0.80
2022-09-22T14:50:21.552Z,0.65
2022-09-22T14:52:51.841Z,0.75
2022-09-22T14:55:41.686Z,0.73
2022-09-22T14:58:16.196Z,1.13
2022-09-22T15:01:22.680Z,0.70
2022-09-22T15:04:06.146Z,0.75
2022-09-22T15:06:37.492Z,0.90
2022-09-22T15:09:05.189Z,0.57
2022-09-22T15:11:49.010Z,0.75
2022-09-22T15:14:25.842Z,0.60
2022-09-22T15:16:52.554Z,0.50
2022-09-22T15:19:20.515Z,0.90
2022-09-22T15:21:48.490Z,1.10
2022-09-22T15:24:21.275Z,0.57
2022-09-22T15:26:48.090Z,0.80
2022-09-22T15:29:17.285Z,0.70
2022-09-22T15:31:44.188Z,0.70
2022-09-22T15:34:14.635Z,0.60
2022-09-22T15:36:46.626Z,0.98
2022-09-22T15:39:21.837Z,0.65
2022-09-22T15:41:49.197Z,0.70
2022-09-22T15:44:16.808Z,0.82
2022-09-22T15:46:46.182Z,0.88
2022-09-22T15:49:26.207Z,0.98
2022-09-22T15:51:55.950Z,1.00
2022-09-22T15:54:24.259Z,0.80
2022-09-22T15:56:54.286Z,0.98
2022-09-22T15:59:27.920Z,0.70
2022-09-22T16:01:57.016Z,0.90
2022-09-22T16:04:24.091Z,0.80
2022-09-22T16:06:56.485Z,0.80
2022-09-22T16:09:23.277Z,0.88
2022-09-22T16:11:50.118Z,0.90
2022-09-22T16:14:17.756Z,1.05
2022-09-22T16:16:44.557Z,0.80
2022-09-22T16:19:11.542Z,0.73
2022-09-22T16:21:43.103Z,0.80
2022-09-22T16:24:11.641Z,0.90
2022-09-22T16:26:40.087Z,0.73
2022-09-22T16:29:08.381Z,0.60
2022-09-22T16:31:36.266Z,0.80
2022-09-22T16:34:05.413Z,0.70
2022-09-22T16:36:35.189Z,0.82
2022-09-22T16:39:03.160Z,1.02
2022-09-22T16:41:35.061Z,0.70
2022-09-22T16:44:02.968Z,0.70
2022-09-22T16:46:31.597Z,1.25
2022-09-22T16:49:05.758Z,0.70
2022-09-22T16:51:35.577Z,1.00
2022-09-22T16:54:04.379Z,1.50
2022-09-22T16:56:33.452Z,1.23
2022-09-22T16:59:03.409Z,1.17
2022-09-22T17:01:32.115Z,1.30
2022-09-22T17:03:59.179Z,1.25
2022-09-22T17:06:26.496Z,1.15
2022-09-22T17:08:57.091Z,0.93
2022-09-22T17:11:34.439Z,1.35
2022-09-22T17:14:04.639Z,1.48
2022-09-22T17:16:38.482Z,1.13
2022-09-22T17:19:08.122Z,1.02
2022-09-22T17:21:37.201Z,1.10
2022-09-22T17:24:05.857Z,1.35
2022-09-22T17:26:50.328Z,1.08
2022-09-22T17:29:26.264Z,1.20
2022-09-22T17:31:57.859Z,1.15
2022-09-22T17:34:26.533Z,1.00
2022-09-22T17:36:55.466Z,1.17
2022-09-22T17:39:24.123Z,1.40
2022-09-22T17:41:51.216Z,1.50
2022-09-22T17:44:21.277Z,1.13
2022-09-22T17:47:08.181Z,1.10
2022-09-22T17:49:53.399Z,1.38
2022-09-22T17:52:29.219Z,1.27
2022-09-22T17:55:11.203Z,1.17
2022-09-22T17:57:42.994Z,1.45
2022-09-22T18:00:21.767Z,1.30
2022-09-22T18:02:55.583Z,1.38
2022-09-22T18:05:28.114Z,1.08
2022-09-22T18:07:58.598Z,1.20
2022-09-22T18:10:33.926Z,1.60
2022-09-22T18:13:02.095Z,1.35
2022-09-22T18:15:29.355Z,1.50
2022-09-22T18:17:58.324Z,2.08
2022-09-22T18:20:27.395Z,2.10
2022-09-22T18:22:54.738Z,2.70
2022-09-22T18:25:23.937Z,2.63
2022-09-22T18:27:50.815Z,2.80
2022-09-22T18:30:19.314Z,2.67
2022-09-22T18:32:49.715Z,3.88
2022-09-22T18:35:16.942Z,4.50
2022-09-22T18:37:43.878Z,5.07
2022-09-22T18:40:12.595Z,5.72
2022-09-22T18:42:41.385Z,8.15
2022-09-22T18:45:10.035Z,7.05
2022-09-22T18:47:40.856Z,6.35
2022-09-22T18:50:08.163Z,5.63
2022-09-22T18:52:34.869Z,5.80
2022-09-22T18:55:01.925Z,6.00
2022-09-22T18:57:29.108Z,5.90
2022-09-22T18:59:59.849Z,5.43
2022-09-22T19:02:26.822Z,6.65
2022-09-22T19:04:53.916Z,5.55
2022-09-22T19:07:42.583Z,5.32
2022-09-22T19:10:12.850Z,4.47
2022-09-22T19:12:40.029Z,4.53
2022-09-22T19:15:16.577Z,4.60
2022-09-22T19:17:45.484Z,4.78
2022-09-22T19:20:22.480Z,4.85
2022-09-22T19:22:50.539Z,4.88
2022-09-22T19:25:17.974Z,4.72
2022-09-22T19:27:44.688Z,3.85
2022-09-22T19:30:12.054Z,4.43
2022-09-22T19:32:39.442Z,4.55
2022-09-22T19:35:07.753Z,4.80
2022-09-22T19:37:34.929Z,4.72
2022-09-22T19:40:01.743Z,4.55
2022-09-22T19:42:28.831Z,4.38
2022-09-22T19:44:55.841Z,4.30
2022-09-22T19:47:23.475Z,4.07
2022-09-22T19:49:50.287Z,3.65
2022-09-22T19:52:20.203Z,3.83
2022-09-22T19:54:47.599Z,4.20
2022-09-22T19:57:14.545Z,4.13
2022-09-22T19:59:41.345Z,4.20
2022-09-22T20:02:15.381Z,4.18
2022-09-22T20:04:42.529Z,4.20
2022-09-22T20:07:11.018Z,4.40
2022-09-22T20:09:38.003Z,4.13
2022-09-22T20:12:05.755Z,4.28
2022-09-22T20:14:32.804Z,5.80
2022-09-22T20:17:03.292Z,4.47
2022-09-22T20:19:32.158Z,5.10
2022-09-22T20:22:31.667Z,4.07
2022-09-22T20:25:00.456Z,3.85
2022-09-22T20:27:29.722Z,4.40
2022-09-22T20:29:57.616Z,4.43
2022-09-22T20:32:26.211Z,4.00
2022-09-22T20:34:55.392Z,4.35
2022-09-22T20:37:22.908Z,3.58
2022-09-22T20:39:49.802Z,4.47
2022-09-22T20:42:17.489Z,5.00
2022-09-22T20:44:44.342Z,5.05
2022-09-22T20:47:14.704Z,6.60
2022-09-22T20:49:42.065Z,8.63
2022-09-22T20:52:14.861Z,10.48
2022-09-22T20:54:42.179Z,7.72
2022-09-22T20:57:09.201Z,6.97
2022-09-22T20:59:36.191Z,6.28
2022-09-22T21:02:03.050Z,7.35
2022-09-22T21:04:30.441Z,5.32
2022-09-22T21:06:57.920Z,5.22
2022-09-22T21:09:43.303Z,6.50
2022-09-22T21:12:09.993Z,5.95
2022-09-22T21:14:37.075Z,5.10
2022-09-22T21:17:06.771Z,5.28
2022-09-22T21:19:34.508Z,6.93
2022-09-22T21:22:01.357Z,7.95
2022-09-22T21:24:31.226Z,10.75
2022-09-22T21:26:59.432Z,11.68
2022-09-22T21:29:30.271Z,10.23
2022-09-22T21:32:01.441Z,10.75
2022-09-22T21:34:28.255Z,7.03
2022-09-22T21:36:55.014Z,18.45
2022-09-22T21:39:21.991Z,12.68
2022-09-22T21:41:49.223Z,8.40
2022-09-22T21:44:15.993Z,7.45
2022-09-22T21:46:44.250Z,6.97
2022-09-22T21:49:11.226Z,5.70
2022-09-22T21:51:44.053Z,6.30
2022-09-22T21:54:16.814Z,6.88
2022-09-22T21:56:50.756Z,6.78
2022-09-22T21:59:21.702Z,6.07
2022-09-22T22:01:48.589Z,6.25
2022-09-22T22:04:17.517Z,5.65
2022-09-22T22:06:46.325Z,6.05
2022-09-22T22:09:23.953Z,9.50
2022-09-22T22:11:54.078Z,10.20
2022-09-22T22:14:25.019Z,9.15
2022-09-22T22:16:55.749Z,9.70
2022-09-22T22:19:25.761Z,14.05
2022-09-22T22:21:53.301Z,13.02
2022-09-22T22:24:28.921Z,11.88
2022-09-22T22:27:01.643Z,10.98
2022-09-22T22:29:34.719Z,10.65
2022-09-22T22:32:02.278Z,8.35
2022-09-22T22:34:29.088Z,7.60
2022-09-22T22:36:56.387Z,8.95
2022-09-22T22:39:23.172Z,7.97
2022-09-22T22:41:50.182Z,7.13
2022-09-22T22:44:17.935Z,7.00
2022-09-22T22:46:45.659Z,6.40
2022-09-22T22:49:12.725Z,6.75
2022-09-22T22:51:40.208Z,7.85
2022-09-22T22:54:07.055Z,8.00
2022-09-22T22:56:33.797Z,7.53
2022-09-22T22:59:00.612Z,7.65
2022-09-22T23:01:30.289Z,8.07
2022-09-22T23:03:59.676Z,6.82
2022-09-22T23:06:36.102Z,8.15
2022-09-22T23:09:04.828Z,6.65
2022-09-22T23:11:35.857Z,6.88
2022-09-22T23:14:04.045Z,6.75
2022-09-22T23:16:37.000Z,6.72
2022-09-22T23:19:07.681Z,5.97
2022-09-22T23:21:38.537Z,7.30
2022-09-22T23:24:06.250Z,5.30
2022-09-22T23:26:33.100Z,5.82
2022-09-22T23:29:01.591Z,5.97
2022-09-22T23:31:28.520Z,6.43
2022-09-22T23:33:55.262Z,5.20
2022-09-22T23:36:27.002Z,5.68
2022-09-22T23:38:55.402Z,5.13
2022-09-22T23:41:23.185Z,5.25
2022-09-22T23:43:50.534Z,4.97
2022-09-22T23:46:21.159Z,5.80
2022-09-22T23:48:48.123Z,5.82
2022-09-22T23:51:15.178Z,5.38
2022-09-22T23:53:42.009Z,4.68
2022-09-22T23:56:08.728Z,5.13
2022-09-22T23:58:35.847Z,4.90
